Time;durP1;ratioP1;P1;durP2;ratioP2;P2;SDS_P1;SDS_P2;PMS_P1;PMS_P2;Temp;Humidity;BMP_temperature;BMP_pressure;BME280_temperature;BME280_humidity;BME280_pressure;Samples;Min_cycle;Max_cycle;Signal;HPM_P1;HPM_P2
2021/12/17 00:05:11;;;;;;;107.85;45.08;;;;;;;3.22;92.59;101796.53;4991166;28;20034;-75
2021/12/17 00:07:57;;;;;;;108.50;43.67;;;;;;;3.26;92.46;101789.28;4986366;28;20149;-75
2021/12/17 00:10:44;;;;;;;115.57;45.80;;;;;;;3.31;92.23;101798.28;4977269;28;20034;-75
2021/12/17 00:13:31;;;;;;;110.10;45.10;;;;;;;3.30;92.68;101808.81;4974640;28;20066;-74
2021/12/17 00:16:21;;;;;;;150.82;48.67;;;;;;;3.28;92.33;101809.00;4985809;28;20122;-75
2021/12/17 00:50:03;;;;;;;112.13;43.95;;;;;;;3.33;92.81;101785.94;5052345;28;20041;-75
2021/12/17 00:52:49;;;;;;;103.20;43.58;;;;;;;3.37;93.05;101796.88;5043609;28;20170;-75
2021/12/17 00:55:35;;;;;;;107.43;44.47;;;;;;;3.38;92.73;101788.94;5049209;28;20055;-75
2021/12/17 00:58:20;;;;;;;138.55;45.72;;;;;;;3.45;92.92;101786.59;5036439;28;20380;-75
2021/12/17 01:01:06;;;;;;;103.35;43.38;;;;;;;3.48;92.61;101786.28;5039391;28;20034;-75
2021/12/17 01:03:53;;;;;;;111.50;44.30;;;;;;;3.48;92.33;101796.72;5033489;28;20052;-74
2021/12/17 01:06:39;;;;;;;108.18;43.22;;;;;;;3.44;92.66;101782.31;5033717;28;20037;-73
2021/12/17 01:09:26;;;;;;;108.32;43.13;;;;;;;3.52;92.92;101787.66;5038752;28;20075;-75
2021/12/17 01:12:14;;;;;;;110.50;44.22;;;;;;;3.48;92.34;101765.47;5045169;28;20046;-76
2021/12/17 01:15:01;;;;;;;105.00;43.00;;;;;;;3.49;92.46;101772.28;5045169;28;20045;-75
2021/12/17 01:17:51;;;;;;;105.85;45.05;;;;;;;3.54;92.31;101766.66;5049718;28;20036;-75
2021/12/17 01:21:19;;;;;;;105.75;44.50;;;;;;;3.55;92.24;101771.72;5049876;28;20078;-75
2021/12/17 01:24:16;;;;;;;98.00;41.92;;;;;;;3.55;92.29;101768.31;5035273;28;20042;-74
2021/12/17 01:36:18;;;;;;;105.40;42.55;;;;;;;3.53;92.27;101726.78;5037008;28;20037;-75
2021/12/17 01:40:31;;;;;;;100.03;41.78;;;;;;;3.51;92.49;101715.69;5033320;28;20044;-74
2021/12/17 01:42:13;;;;;;;103.33;43.00;;;;;;;3.48;92.35;101707.34;5049308;28;20037;-75
2021/12/17 01:44:58;;;;;;;102.20;43.00;;;;;;;3.44;92.16;101701.59;5047766;28;20501;-75
2021/12/17 01:47:44;;;;;;;110.50;43.33;;;;;;;3.48;92.47;101700.34;5053149;28;20114;-75
2021/12/17 01:56:53;;;;;;;99.72;42.70;;;;;;;3.53;92.67;101697.31;5037671;28;20587;-75
2021/12/17 01:59:40;;;;;;;108.05;42.80;;;;;;;3.53;92.65;101692.91;5035572;28;20041;-74
2021/12/17 02:02:28;;;;;;;109.80;43.63;;;;;;;3.50;92.28;101687.19;5039143;28;20402;-74
2021/12/17 02:05:14;;;;;;;108.35;43.22;;;;;;;3.41;92.44;101668.06;5050755;28;20041;-74
2021/12/17 02:08:01;;;;;;;118.72;44.80;;;;;;;3.41;91.97;101662.84;5046861;28;20573;-73
2021/12/17 02:19:58;;;;;;;118.38;44.55;;;;;;;3.28;92.88;101657.16;5047061;28;20391;-74
2021/12/17 02:28:49;;;;;;;135.07;44.75;;;;;;;3.24;92.96;101648.03;5037161;28;20438;-75
2021/12/17 02:31:34;;;;;;;312.13;64.05;;;;;;;3.32;92.50;101659.31;5053768;28;20056;-75
2021/12/17 02:34:59;;;;;;;122.43;47.00;;;;;;;3.34;92.44;101670.41;5053654;28;20017;-74
2021/12/17 02:37:46;;;;;;;189.40;45.97;;;;;;;3.27;92.19;101665.94;5050610;28;20060;-74
2021/12/17 02:46:41;;;;;;;140.30;46.00;;;;;;;3.28;92.40;101672.78;5035232;28;20037;-75
2021/12/17 02:49:29;;;;;;;172.57;48.75;;;;;;;3.30;92.44;101684.69;5036046;28;20065;-74
2021/12/17 02:52:16;;;;;;;142.68;46.88;;;;;;;3.33;92.83;101691.41;5045458;28;20037;-75
2021/12/17 02:55:05;;;;;;;137.23;49.17;;;;;;;3.27;92.55;101689.38;5052187;28;20099;-74
2021/12/17 02:57:51;;;;;;;148.05;51.47;;;;;;;3.33;92.68;101691.41;5035415;28;20561;-75
2021/12/17 03:00:41;;;;;;;728.95;111.93;;;;;;;3.33;92.72;101684.41;5041434;28;20048;-75
2021/12/17 03:03:31;;;;;;;147.32;48.47;;;;;;;3.32;92.55;101680.16;5048622;28;20056;-75
2021/12/17 03:06:19;;;;;;;135.00;49.20;;;;;;;3.33;93.00;101681.00;5044872;28;20051;-75
2021/12/17 03:09:04;;;;;;;131.95;47.55;;;;;;;3.28;92.54;101677.97;5047654;28;20063;-75
2021/12/17 03:11:50;;;;;;;132.77;47.83;;;;;;;3.31;93.10;101673.31;5052488;28;20087;-75
2021/12/17 03:14:46;;;;;;;121.97;45.95;;;;;;;3.29;92.88;101659.63;5051423;28;20438;-74
2021/12/17 03:23:51;;;;;;;123.28;44.15;;;;;;;3.31;93.09;101643.88;5010387;28;20519;-75
2021/12/17 03:26:37;;;;;;;109.70;41.92;;;;;;;3.31;93.00;101639.47;5010649;28;20089;-75
2021/12/17 03:29:23;;;;;;;131.05;41.78;;;;;;;3.30;93.09;101647.41;5023489;28;20038;-75
2021/12/17 03:32:08;;;;;;;112.57;40.95;;;;;;;3.28;93.29;101652.78;5011105;28;20030;-75
2021/12/17 03:34:54;;;;;;;117.10;39.97;;;;;;;3.30;92.98;101665.63;5013911;28;20437;-74
2021/12/17 03:37:40;;;;;;;151.40;41.80;;;;;;;3.31;92.93;101649.88;5009804;28;20230;-74
2021/12/17 03:40:27;;;;;;;201.63;41.92;;;;;;;3.05;92.95;101608.13;5011784;28;20037;-74
2021/12/17 03:43:21;;;;;;;131.23;39.45;;;;;;;3.28;93.27;101663.22;5009594;28;20038;-75
2021/12/17 03:46:07;;;;;;;406.08;55.03;;;;;;;3.17;93.12;101643.38;5014762;28;20045;-75
2021/12/17 03:48:52;;;;;;;162.25;38.22;;;;;;;3.22;92.85;101648.16;5010045;28;20217;-74
2021/12/17 03:51:49;;;;;;;158.77;37.40;;;;;;;3.16;93.22;101639.16;5010244;28;20465;-75
2021/12/17 03:54:36;;;;;;;187.30;35.67;;;;;;;3.19;92.98;101654.47;5010376;28;20026;-75
2021/12/17 03:57:22;;;;;;;182.57;35.70;;;;;;;2.88;93.24;101609.72;5029101;28;20076;-75
2021/12/17 04:00:11;;;;;;;135.77;35.50;;;;;;;3.04;93.15;101663.75;5044672;28;20033;-75
2021/12/17 04:02:57;;;;;;;97.38;35.63;;;;;;;3.05;93.71;101667.97;5040055;28;20057;-74
2021/12/17 04:05:43;;;;;;;122.15;34.90;;;;;;;3.00;93.42;101671.97;5033518;28;20040;-74
2021/12/17 04:08:29;;;;;;;118.80;35.30;;;;;;;2.99;93.76;101684.13;5040626;28;20473;-75
2021/12/17 04:11:18;;;;;;;134.07;33.90;;;;;;;2.92;94.08;101681.31;5051973;28;20395;-75
2021/12/17 04:14:04;;;;;;;143.90;34.20;;;;;;;2.88;93.78;101692.16;5047775;28;20100;-75
2021/12/17 04:16:50;;;;;;;152.48;34.50;;;;;;;2.83;94.30;101678.75;5047553;28;20041;-75
2021/12/17 04:19:36;;;;;;;135.13;32.67;;;;;;;2.72;94.37;101677.94;5038727;28;20042;-75
2021/12/17 04:22:22;;;;;;;146.68;34.72;;;;;;;2.67;94.57;101668.94;5037480;28;20562;-75
2021/12/17 04:25:08;;;;;;;160.52;34.30;;;;;;;2.74;94.35;101675.22;5036203;28;20033;-75
2021/12/17 04:27:58;;;;;;;155.57;35.47;;;;;;;2.71;94.93;101665.91;5031313;28;20033;-75
2021/12/17 04:30:44;;;;;;;150.50;33.80;;;;;;;2.71;94.72;101667.69;5042730;28;20103;-75
2021/12/17 04:33:30;;;;;;;114.68;34.08;;;;;;;2.71;94.30;101650.31;5045380;28;20502;-75
2021/12/17 04:36:22;;;;;;;140.77;34.38;;;;;;;2.73;94.89;101637.13;5049724;28;20603;-75
2021/12/17 04:39:08;;;;;;;145.68;34.42;;;;;;;2.62;94.55;101627.75;5052326;28;20037;-75
2021/12/17 04:44:49;;;;;;;101.15;35.05;;;;;;;2.66;95.02;101631.72;5051846;28;20037;-75
2021/12/17 04:59:53;;;;;;;99.30;36.17;;;;;;;2.70;95.23;101647.84;5041818;28;20048;-74
2021/12/17 05:02:44;;;;;;;106.40;36.22;;;;;;;2.64;95.28;101636.22;5035362;28;20129;-76
2021/12/17 05:05:32;;;;;;;112.32;35.58;;;;;;;2.68;94.99;101661.00;5047887;28;20145;-74
2021/12/17 05:08:20;;;;;;;116.03;36.55;;;;;;;2.54;95.54;101633.66;5036981;28;20044;-76
2021/12/17 05:11:27;;;;;;;89.27;28.83;;;;;;;2.52;95.92;101639.97;5041918;28;20044;-74
2021/12/17 05:20:42;;;;;;;937.33;168.93;;;;;;;2.54;96.24;101641.47;5043607;28;20410;-74
2021/12/17 05:23:34;;;;;;;265.23;54.25;;;;;;;2.82;97.39;101641.50;5032336;28;20487;-76
2021/12/17 05:26:21;;;;;;;128.18;40.15;;;;;;;2.79;96.29;101641.78;5038722;28;20128;-76
2021/12/17 05:29:07;;;;;;;131.40;40.08;;;;;;;2.65;95.75;101627.44;5033877;28;20411;-76
2021/12/17 05:31:52;;;;;;;92.93;36.10;;;;;;;2.53;95.63;101621.59;5037464;28;20092;-77
2021/12/17 05:34:38;;;;;;;114.90;33.17;;;;;;;2.59;95.64;101627.22;5053681;28;20026;-76
2021/12/17 05:37:24;;;;;;;90.72;33.58;;;;;;;2.50;95.86;101610.69;5062680;28;20036;-76
2021/12/17 05:40:10;;;;;;;243.30;44.80;;;;;;;2.46;96.46;101602.34;5032065;28;20499;-77
2021/12/17 05:43:00;;;;;;;110.05;33.25;;;;;;;2.45;96.36;101599.91;5031314;28;20399;-76
2021/12/17 05:45:50;;;;;;;165.65;34.97;;;;;;;2.45;96.29;101618.91;5043310;28;20571;-76
2021/12/17 05:48:37;;;;;;;104.80;32.50;;;;;;;2.47;96.38;101624.78;5039389;28;20065;-76
2021/12/17 05:51:23;;;;;;;118.20;34.05;;;;;;;2.21;96.22;101601.19;5032359;28;20033;-77
2021/12/17 05:54:09;;;;;;;118.55;33.97;;;;;;;2.26;96.40;101626.75;5042499;28;20049;-77
2021/12/17 05:56:55;;;;;;;130.18;34.35;;;;;;;2.20;96.57;101630.72;5031287;28;20424;-76
2021/12/17 05:59:41;;;;;;;119.55;36.30;;;;;;;2.26;96.48;101629.34;5033349;28;20453;-77
2021/12/17 06:02:26;;;;;;;195.52;41.45;;;;;;;2.18;96.70;101588.47;5039707;28;20056;-77
2021/12/17 06:05:12;;;;;;;141.02;38.35;;;;;;;2.38;97.14;101607.44;5031446;28;20558;-76
2021/12/17 06:07:59;;;;;;;139.68;36.83;;;;;;;2.28;96.98;101596.25;5040044;28;20068;-76
2021/12/17 06:10:44;;;;;;;158.43;37.92;;;;;;;2.01;97.09;101563.19;5037720;28;20033;-77
2021/12/17 06:13:30;;;;;;;120.50;35.75;;;;;;;2.28;96.92;101606.66;5036970;28;20029;-76
2021/12/17 06:16:16;;;;;;;126.85;36.67;;;;;;;2.36;97.06;101609.34;5038885;28;20040;-78
2021/12/17 06:19:03;;;;;;;250.82;43.45;;;;;;;2.38;96.75;101612.63;5035711;28;20110;-72
2021/12/17 06:21:48;;;;;;;156.35;38.00;;;;;;;2.36;97.02;101591.16;5047620;28;20041;-73
2021/12/17 06:24:34;;;;;;;99.47;38.67;;;;;;;2.45;97.31;101586.91;5050917;28;20029;-76
2021/12/17 06:27:23;;;;;;;128.35;41.58;;;;;;;2.50;97.41;101575.09;5042991;28;20045;-74
2021/12/17 06:30:15;;;;;;;126.90;43.60;;;;;;;2.68;97.27;101571.72;5052519;28;20037;-74
2021/12/17 06:33:00;;;;;;;136.52;43.50;;;;;;;2.66;96.86;101552.84;5039319;28;20515;-76
2021/12/17 06:35:46;;;;;;;151.15;46.45;;;;;;;2.93;96.33;101572.84;5043346;28;20140;-79
2021/12/17 06:38:32;;;;;;;172.32;48.40;;;;;;;3.03;96.63;101558.00;5045992;28;20479;-77
2021/12/17 06:41:18;;;;;;;173.43;48.90;;;;;;;3.12;95.50;101553.72;5053482;28;20048;-74
2021/12/17 06:44:06;;;;;;;174.93;48.35;;;;;;;3.22;95.24;101549.25;5038475;28;20384;-76
2021/12/17 06:47:32;;;;;;;166.82;50.75;;;;;;;3.21;95.19;101537.22;5047472;28;20112;-75
2021/12/17 06:54:41;;;;;;;173.15;47.97;;;;;;;3.35;94.76;101544.50;5051415;28;20156;-75
2021/12/17 07:10:46;;;;;;;83.38;35.08;;;;;;;3.61;94.75;101547.13;5043183;28;20064;-74
2021/12/17 07:35:02;;;;;;;83.97;36.85;;;;;;;3.95;93.53;101575.09;5052135;28;20040;-73
2021/12/17 07:40:53;;;;;;;95.10;40.83;;;;;;;3.98;93.80;101580.00;5046875;28;20037;-74
2021/12/17 07:43:40;;;;;;;85.15;37.55;;;;;;;3.98;93.50;101579.19;5045950;28;20124;-72
2021/12/17 07:46:27;;;;;;;84.40;36.13;;;;;;;3.91;92.39;101586.78;5047480;28;20083;-72
2021/12/17 07:49:12;;;;;;;76.60;33.63;;;;;;;3.62;91.93;101567.03;5035843;28;20099;-72
2021/12/17 07:51:58;;;;;;;70.07;31.65;;;;;;;3.44;91.17;101568.81;5034461;28;20033;-74
2021/12/17 07:54:44;;;;;;;70.40;31.25;;;;;;;3.39;92.04;101591.88;5034713;28;20171;-72
2021/12/17 07:57:30;;;;;;;81.47;33.22;;;;;;;3.14;92.18;101576.00;5058136;28;20550;-74
2021/12/17 08:00:16;;;;;;;73.35;32.75;;;;;;;3.16;92.91;101587.09;5047975;28;20045;-74
2021/12/17 08:03:02;;;;;;;76.50;32.90;;;;;;;3.17;92.62;101593.13;5039903;28;20040;-74
2021/12/17 08:05:49;;;;;;;72.55;31.52;;;;;;;3.16;93.09;101596.66;5052663;28;20040;-75
2021/12/17 08:08:34;;;;;;;78.45;33.28;;;;;;;3.09;93.78;101575.63;5051851;28;20041;-74
2021/12/17 08:11:22;;;;;;;78.95;32.00;;;;;;;3.03;93.46;101575.41;5051749;28;20036;-73
2021/12/17 08:14:12;;;;;;;77.47;31.33;;;;;;;2.97;93.84;101580.22;5032282;28;20037;-73
2021/12/17 08:17:16;;;;;;;74.55;31.52;;;;;;;2.94;93.58;101577.91;5043585;28;20052;-73
2021/12/17 08:24:16;;;;;;;76.90;31.40;;;;;;;2.85;94.35;101586.59;5052001;28;20437;-72
2021/12/17 08:26:22;;;;;;;76.75;32.22;;;;;;;2.84;94.13;101589.31;5043306;28;20067;-75
2021/12/17 08:31:58;;;;;;;79.75;32.35;;;;;;;2.78;94.37;101590.72;5048243;28;20068;-73
2021/12/17 08:34:44;;;;;;;77.88;33.10;;;;;;;2.67;94.38;101583.94;5038528;28;20037;-75
2021/12/17 08:37:31;;;;;;;79.43;35.60;;;;;;;2.74;94.67;101585.00;5045874;28;20043;-71
2021/12/17 08:40:17;;;;;;;77.47;32.42;;;;;;;2.71;94.85;101585.28;5044977;28;20037;-71
2021/12/17 08:43:03;;;;;;;68.22;31.67;;;;;;;2.67;94.38;101572.72;5049364;28;20033;-72
2021/12/17 08:45:49;;;;;;;75.43;33.78;;;;;;;2.69;95.16;101584.59;5050153;28;20118;-75
2021/12/17 08:48:35;;;;;;;82.78;37.20;;;;;;;2.73;94.99;101590.31;5039674;28;20049;-72
2021/12/17 08:51:23;;;;;;;71.63;32.55;;;;;;;2.66;95.03;101589.25;5039739;28;20132;-72
2021/12/17 08:54:10;;;;;;;77.97;35.28;;;;;;;2.74;94.74;101598.00;5039668;28;20148;-71
2021/12/17 08:56:55;;;;;;;85.00;36.85;;;;;;;2.71;95.29;101585.28;5044310;28;20044;-73
2021/12/17 08:59:43;;;;;;;78.63;34.42;;;;;;;2.80;95.37;101588.78;5041994;28;20034;-73
2021/12/17 09:02:29;;;;;;;89.53;36.63;;;;;;;2.83;95.82;101587.69;5044522;28;20045;-74
2021/12/17 09:05:17;;;;;;;84.90;35.03;;;;;;;2.74;95.77;101569.38;5042428;28;20045;-73
2021/12/17 09:08:04;;;;;;;87.95;38.65;;;;;;;2.94;95.97;101584.88;5031953;28;20083;-73
2021/12/17 09:10:55;;;;;;;90.30;36.80;;;;;;;2.83;95.22;101559.09;5036407;28;20041;-73
2021/12/17 09:13:41;;;;;;;98.43;42.60;;;;;;;2.86;94.75;101569.19;5050577;28;20029;-74
2021/12/17 09:16:27;;;;;;;82.63;35.70;;;;;;;2.84;95.21;101566.72;5045222;28;20137;-74
2021/12/17 09:19:13;;;;;;;86.47;38.17;;;;;;;2.84;95.24;101571.94;5036193;28;20116;-74
2021/12/17 09:21:59;;;;;;;89.03;36.53;;;;;;;2.82;95.12;101562.63;5035145;28;20387;-77
2021/12/17 09:24:44;;;;;;;94.75;40.85;;;;;;;2.87;95.34;101565.63;5039208;28;20044;-76
2021/12/17 09:27:30;;;;;;;84.35;35.90;;;;;;;2.87;94.92;101563.03;5037244;28;20064;-76
2021/12/17 09:30:18;;;;;;;82.70;35.97;;;;;;;2.91;95.03;101559.16;5049761;28;20657;-78
2021/12/17 09:33:04;;;;;;;78.75;35.72;;;;;;;2.89;95.00;101556.69;5035572;28;20066;-76
2021/12/17 09:35:50;;;;;;;79.28;33.15;;;;;;;2.89;94.84;101548.09;5032576;28;20092;-77
2021/12/17 09:38:35;;;;;;;81.95;33.60;;;;;;;2.99;94.83;101561.84;5036749;28;20034;-76
2021/12/17 09:41:23;;;;;;;79.50;33.15;;;;;;;2.98;94.98;101555.84;5036772;28;20037;-76
2021/12/17 09:44:14;;;;;;;80.63;31.30;;;;;;;3.02;95.09;101558.13;5045461;28;20044;-76
2021/12/17 09:47:00;;;;;;;80.25;33.30;;;;;;;2.98;94.71;101544.59;5045209;28;20029;-77
2021/12/17 09:49:46;;;;;;;80.70;35.67;;;;;;;2.95;94.59;101534.50;5033128;28;20041;-76
2021/12/17 09:52:32;;;;;;;85.68;34.28;;;;;;;3.03;95.03;101552.78;5049827;28;20036;-76
2021/12/17 09:55:18;;;;;;;82.97;36.05;;;;;;;3.00;94.87;101544.47;5049192;28;20464;-75
2021/12/17 09:58:04;;;;;;;81.40;34.05;;;;;;;3.04;94.89;101554.44;5042346;28;20111;-76
2021/12/17 10:00:50;;;;;;;85.22;35.90;;;;;;;3.19;94.82;101563.38;5037072;28;20052;-75
2021/12/17 10:03:36;;;;;;;85.00;37.75;;;;;;;3.19;95.21;101559.97;5060057;28;20048;-76
2021/12/17 10:06:22;;;;;;;84.32;35.42;;;;;;;3.20;94.51;101558.97;5055056;28;20412;-76
2021/12/17 10:09:08;;;;;;;86.18;36.78;;;;;;;3.25;94.63;101555.94;5041373;28;20404;-76
2021/12/17 10:12:05;;;;;;;84.85;35.78;;;;;;;3.26;95.02;101555.00;5045561;28;20503;-74
2021/12/17 10:15:18;;;;;;;91.75;38.25;;;;;;;3.26;94.24;101561.00;5040879;28;20037;-76
2021/12/17 10:18:04;;;;;;;85.30;36.05;;;;;;;3.15;94.40;101543.81;5048772;28;20039;-76
2021/12/17 10:20:59;;;;;;;86.40;35.10;;;;;;;3.26;94.29;101544.56;5050375;28;20037;-77
2021/12/17 10:23:46;;;;;;;107.72;47.05;;;;;;;3.22;94.20;101548.44;5045100;28;20410;-76
2021/12/17 10:26:41;;;;;;;97.47;39.05;;;;;;;3.30;93.53;101545.91;5066405;28;20063;-77
2021/12/17 10:29:28;;;;;;;90.93;38.08;;;;;;;3.32;93.15;101549.97;5045715;28;20116;-77
2021/12/17 10:32:23;;;;;;;89.63;35.80;;;;;;;3.37;93.19;101552.94;5052448;28;20094;-76
2021/12/17 10:35:12;;;;;;;88.32;35.38;;;;;;;3.31;93.17;101534.53;5037494;28;20038;-74
2021/12/17 10:38:03;;;;;;;79.45;33.80;;;;;;;3.49;93.31;101556.16;5046321;28;20405;-77
2021/12/17 10:41:07;;;;;;;74.75;32.25;;;;;;;3.49;93.27;101545.72;5050456;28;20061;-77
2021/12/17 10:43:58;;;;;;;72.32;31.67;;;;;;;3.50;93.12;101543.97;5044471;28;20093;-77
2021/12/17 10:47:07;;;;;;;77.47;31.85;;;;;;;3.61;91.76;101552.34;5046338;28;20044;-78
2021/12/17 10:49:54;;;;;;;73.95;32.42;;;;;;;3.62;92.74;101554.00;5044443;28;20032;-77
2021/12/17 10:52:45;;;;;;;83.00;33.55;;;;;;;3.69;92.46;101537.75;5046765;28;20041;-78
2021/12/17 10:55:31;;;;;;;72.80;31.25;;;;;;;3.75;91.39;101553.59;5043246;28;20036;-78
2021/12/17 10:58:17;;;;;;;73.20;31.92;;;;;;;3.79;91.80;101564.53;5045659;28;20037;-78
2021/12/17 11:01:07;;;;;;;73.50;31.65;;;;;;;3.78;91.33;101575.91;5047959;28;20044;-78
2021/12/17 11:04:03;;;;;;;76.78;31.23;;;;;;;3.73;91.74;101559.94;5042494;28;20037;-74
2021/12/17 11:06:52;;;;;;;74.45;30.58;;;;;;;3.74;91.33;101565.00;5052485;28;20292;-77
2021/12/17 11:09:44;;;;;;;72.82;30.60;;;;;;;3.73;91.09;101562.53;5035988;28;20036;-76
2021/12/17 11:12:38;;;;;;;73.13;31.05;;;;;;;3.75;91.59;101571.84;5044869;28;20039;-77
2021/12/17 11:15:28;;;;;;;77.40;30.92;;;;;;;3.65;91.07;101565.91;5040235;28;20029;-75
2021/12/17 11:18:14;;;;;;;80.78;32.67;;;;;;;3.71;91.65;101573.13;5042839;28;20039;-76
2021/12/17 11:21:00;;;;;;;77.88;31.73;;;;;;;3.74;91.19;101569.41;5040268;28;20040;-76
2021/12/17 11:23:47;;;;;;;74.80;30.83;;;;;;;3.65;91.71;101563.28;5037314;28;20462;-76
2021/12/17 11:26:33;;;;;;;78.38;32.75;;;;;;;3.72;91.28;101566.13;5044321;28;20045;-76
2021/12/17 11:29:19;;;;;;;69.82;29.13;;;;;;;3.84;90.82;101583.16;5040657;28;20040;-76
2021/12/17 11:32:05;;;;;;;68.22;28.42;;;;;;;3.81;90.07;101591.28;5044666;28;20096;-76
2021/12/17 11:34:52;;;;;;;68.28;29.73;;;;;;;3.76;89.36;101572.63;5038526;28;20044;-76
2021/12/17 11:37:42;;;;;;;64.70;28.20;;;;;;;3.78;90.29;101568.09;5043251;28;20041;-76
2021/12/17 11:40:41;;;;;;;73.38;29.35;;;;;;;3.83;89.56;101582.34;5046525;28;20029;-74
2021/12/17 11:43:50;;;;;;;70.72;29.35;;;;;;;3.95;90.33;101585.53;5050558;28;20033;-77
2021/12/17 11:46:36;;;;;;;77.90;33.60;;;;;;;4.03;90.14;101569.94;5036678;28;20119;-74
2021/12/17 11:49:24;;;;;;;66.93;30.67;;;;;;;3.88;88.18;101565.41;5042003;28;20087;-75
2021/12/17 11:52:10;;;;;;;73.35;33.08;;;;;;;3.86;88.50;101570.78;5045754;28;20128;-75
2021/12/17 11:55:27;;;;;;;65.70;29.00;;;;;;;3.92;88.68;101583.19;5051734;28;20463;-76
2021/12/17 11:58:16;;;;;;;60.90;27.48;;;;;;;3.87;88.50;101569.81;5050006;28;20029;-76
2021/12/17 12:01:01;;;;;;;65.13;27.70;;;;;;;4.02;88.06;101583.09;5048289;28;20048;-76
2021/12/17 12:03:48;;;;;;;64.32;28.52;;;;;;;4.08;88.37;101585.09;5046468;28;20128;-76
2021/12/17 12:06:34;;;;;;;60.67;27.23;;;;;;;4.01;87.24;101576.25;5043912;28;20052;-76
2021/12/17 12:12:41;;;;;;;61.60;27.95;;;;;;;4.06;87.21;101584.44;5047154;28;20037;-71
2021/12/17 12:15:31;;;;;;;59.40;25.88;;;;;;;4.09;87.57;101568.47;5056815;28;20052;-77
2021/12/17 12:18:18;;;;;;;59.15;26.45;;;;;;;4.17;87.81;101575.56;5048070;28;20037;-76
2021/12/17 12:21:04;;;;;;;60.28;28.33;;;;;;;4.31;88.04;101571.53;5049691;28;20032;-70
2021/12/17 12:23:56;;;;;;;58.53;27.65;;;;;;;4.39;86.87;101580.25;5051980;28;20037;-70
2021/12/17 12:26:50;;;;;;;59.58;26.70;;;;;;;4.42;86.70;101572.09;5054356;28;20029;-77
2021/12/17 12:29:36;;;;;;;57.15;26.92;;;;;;;4.43;86.32;101568.53;5041764;28;20056;-76
2021/12/17 12:32:23;;;;;;;57.83;26.92;;;;;;;4.40;86.66;101561.00;5037578;28;20376;-75
2021/12/17 12:35:09;;;;;;;57.13;28.85;;;;;;;4.43;86.76;101557.25;5048127;28;20021;-76
2021/12/17 12:38:19;;;;;;;60.45;28.67;;;;;;;4.51;87.27;101553.91;5063972;28;20448;-76
2021/12/17 12:41:07;;;;;;;68.75;32.33;;;;;;;4.46;86.99;101539.53;5050094;28;20491;-76
2021/12/17 12:43:53;;;;;;;74.28;33.58;;;;;;;4.60;87.12;101542.53;5044518;28;20059;-76
2021/12/17 12:46:56;;;;;;;66.68;31.52;;;;;;;4.65;87.40;101537.66;5036478;28;20404;-76
2021/12/17 12:49:54;;;;;;;63.53;31.65;;;;;;;4.66;87.31;101534.06;5040472;28;20509;-76
2021/12/17 12:53:05;;;;;;;66.00;32.17;;;;;;;4.85;87.19;101559.06;5046746;28;20052;-76
2021/12/17 12:55:51;;;;;;;61.50;30.75;;;;;;;4.86;86.76;101551.09;5036626;28;20064;-76
2021/12/17 12:58:37;;;;;;;60.88;30.23;;;;;;;5.00;85.72;101554.88;5045289;28;20450;-76
2021/12/17 13:01:23;;;;;;;55.65;27.63;;;;;;;5.00;84.31;101557.47;5037163;28;20030;-76
2021/12/17 13:04:09;;;;;;;56.97;27.52;;;;;;;5.11;83.65;101551.16;5042424;28;20040;-76
2021/12/17 13:06:54;;;;;;;46.25;22.17;;;;;;;5.11;80.84;101548.53;5036528;28;20029;-76
2021/12/17 13:09:44;;;;;;;43.08;20.35;;;;;;;5.01;78.09;101543.47;5041505;28;20116;-72
2021/12/17 13:12:29;;;;;;;;;;;;;;;5.11;78.86;101562.41;5043675;28;20415;-72
2021/12/17 13:15:33;;;;;;;47.17;22.20;;;;;;;5.10;78.02;101562.59;5033463;28;19909;-76
2021/12/17 13:24:21;;;;;;;35.97;17.75;;;;;;;5.13;74.88;101562.25;5041367;28;20049;-76
2021/12/17 13:27:11;;;;;;;30.23;16.00;;;;;;;4.99;75.10;101536.78;5040811;28;20037;-75
2021/12/17 13:29:58;;;;;;;33.45;16.75;;;;;;;5.11;75.84;101543.31;5044557;28;20064;-75
2021/12/17 13:32:43;;;;;;;31.33;16.98;;;;;;;5.11;75.69;101553.75;5044877;28;20415;-76
2021/12/17 13:35:33;;;;;;;37.38;18.45;;;;;;;5.15;76.13;101554.25;5037984;28;20502;-76
2021/12/17 13:38:19;;;;;;;46.45;21.23;;;;;;;5.02;76.25;101549.50;5049174;28;20079;-76
2021/12/17 13:41:09;;;;;;;44.42;21.25;;;;;;;5.05;76.94;101539.56;5038958;28;20029;-75
2021/12/17 13:43:55;;;;;;;44.55;20.75;;;;;;;5.11;76.45;101546.72;5045239;28;20050;-76
2021/12/17 13:46:43;;;;;;;46.00;20.90;;;;;;;5.17;76.66;101554.91;5052465;28;20037;-75
2021/12/17 13:49:29;;;;;;;47.85;21.10;;;;;;;5.17;76.70;101552.28;5038553;28;20041;-75
2021/12/17 13:52:16;;;;;;;44.22;21.25;;;;;;;5.11;76.20;101538.91;5051020;28;20144;-75
2021/12/17 13:55:06;;;;;;;45.40;20.67;;;;;;;5.08;76.46;101547.06;5035330;28;20025;-76
2021/12/17 13:57:52;;;;;;;40.90;20.60;;;;;;;5.07;76.80;101544.59;5050828;28;20088;-71
2021/12/17 14:00:44;;;;;;;34.88;19.50;;;;;;;5.13;78.00;101551.81;5049071;28;20044;-72
2021/12/17 14:03:34;;;;;;;45.92;22.60;;;;;;;5.06;78.95;101564.69;5033443;28;20140;-71
2021/12/17 14:06:27;;;;;;;46.92;21.23;;;;;;;5.01;79.75;101569.56;5050312;28;20491;-76
2021/12/17 14:09:16;;;;;;;41.55;21.02;;;;;;;4.96;79.88;101557.97;5041944;28;20033;-75
2021/12/17 14:12:31;;;;;;;43.90;22.73;;;;;;;4.91;79.95;101561.06;5046413;28;20395;-74
2021/12/17 14:15:28;;;;;;;45.20;21.88;;;;;;;4.89;80.28;101560.41;5038064;28;20033;-74
2021/12/17 14:18:23;;;;;;;55.97;22.50;;;;;;;4.83;80.93;101561.81;5040551;28;20037;-75
2021/12/17 14:21:09;;;;;;;42.05;21.35;;;;;;;4.86;80.76;101563.31;5036965;28;20041;-75
2021/12/17 14:23:55;;;;;;;41.83;21.40;;;;;;;4.78;81.09;101551.06;5042264;28;20035;-75
2021/12/17 14:26:46;;;;;;;38.72;20.60;;;;;;;4.82;80.86;101562.81;5048547;28;20036;-72
2021/12/17 14:29:32;;;;;;;43.15;20.92;;;;;;;4.80;81.05;101564.75;5047749;28;20075;-74
2021/12/17 14:32:18;;;;;;;39.03;19.75;;;;;;;4.75;80.62;101554.00;5038745;28;20045;-71
2021/12/17 14:35:04;;;;;;;37.20;18.80;;;;;;;4.71;80.59;101557.88;5047943;28;20083;-71
2021/12/17 14:37:54;;;;;;;37.72;20.50;;;;;;;4.49;81.21;101525.34;5044680;28;20041;-71
2021/12/17 14:40:48;;;;;;;38.88;20.23;;;;;;;4.62;81.59;101559.66;5049457;28;20127;-70
2021/12/17 14:43:36;;;;;;;35.53;20.08;;;;;;;4.66;81.05;101567.97;5050801;28;20060;-72
2021/12/17 14:46:24;;;;;;;37.30;19.73;;;;;;;4.54;81.61;101537.94;5039516;28;20189;-71
2021/12/17 15:01:27;;;;;;;32.97;16.60;;;;;;;4.51;81.85;101578.19;5047758;28;20036;-72
2021/12/17 15:04:13;;;;;;;31.70;17.10;;;;;;;4.45;81.38;101571.81;5052741;28;20128;-73
2021/12/17 15:07:02;;;;;;;31.85;17.25;;;;;;;4.49;81.39;101582.72;5035677;28;20041;-71
2021/12/17 15:09:48;;;;;;;34.72;17.55;;;;;;;4.55;81.49;101587.34;5047574;28;20064;-73
2021/12/17 15:15:26;;;;;;;34.33;17.55;;;;;;;4.52;82.39;101594.66;5051839;28;20044;-69
2021/12/17 15:18:16;;;;;;;33.05;17.55;;;;;;;4.50;81.98;101581.75;5046479;28;20108;-71
2021/12/17 15:21:02;;;;;;;34.22;17.30;;;;;;;4.53;82.09;101588.47;5033567;28;20077;-72
2021/12/17 15:23:48;;;;;;;33.17;16.83;;;;;;;4.42;81.88;101568.69;5037847;28;20479;-72
2021/12/17 15:26:34;;;;;;;35.63;18.25;;;;;;;4.49;82.50;101590.56;5037029;28;20049;-70
2021/12/17 15:29:22;;;;;;;29.95;16.42;;;;;;;4.41;82.47;101580.09;5049289;28;20036;-72
2021/12/17 15:32:08;;;;;;;34.47;16.75;;;;;;;4.46;82.65;101580.44;5051123;28;20037;-72
2021/12/17 15:34:54;;;;;;;34.90;17.30;;;;;;;4.36;82.85;101566.72;5047358;28;20037;-73
2021/12/17 15:37:40;;;;;;;33.58;17.17;;;;;;;4.35;82.77;101576.28;5044046;28;20083;-73
2021/12/17 15:40:26;;;;;;;33.35;17.63;;;;;;;4.36;82.92;101585.78;5051467;28;20048;-72
2021/12/17 15:43:13;;;;;;;30.10;16.58;;;;;;;4.44;83.26;101587.59;5052348;28;20115;-73
2021/12/17 15:45:59;;;;;;;30.15;15.63;;;;;;;4.18;82.92;101557.13;5038240;28;20067;-73